createdAt,value
2019-04-25T04:00:41.194Z,1.60
2019-04-25T04:02:41.159Z,1.60
2019-04-25T04:04:41.138Z,1.60
2019-04-25T04:06:48.165Z,1.90
2019-04-25T04:08:41.091Z,1.60
2019-04-25T04:10:41.086Z,1.50
2019-04-25T04:12:41.052Z,1.60
2019-04-25T04:14:41.026Z,1.50
2019-04-25T04:16:41.021Z,1.60
2019-04-25T04:18:41.061Z,1.40
2019-04-25T04:20:40.985Z,1.50
2019-04-25T04:22:41.007Z,1.50
2019-04-25T04:24:40.925Z,1.40
2019-04-25T04:26:40.957Z,1.80
2019-04-25T04:28:40.897Z,1.40
2019-04-25T04:30:40.858Z,1.30
2019-04-25T04:32:40.880Z,1.70
2019-04-25T04:34:40.914Z,1.40
2019-04-25T04:36:40.814Z,1.70
2019-04-25T04:38:40.818Z,1.70
2019-04-25T04:40:40.796Z,1.70
2019-04-25T04:42:40.736Z,1.60
2019-04-25T04:44:40.723Z,1.80
2019-04-25T04:46:40.694Z,1.30
2019-04-25T04:48:40.723Z,1.70
2019-04-25T04:50:40.661Z,1.50
2019-04-25T04:52:40.641Z,1.40
2019-04-25T04:54:40.616Z,1.30
2019-04-25T04:56:40.614Z,1.40
2019-04-25T04:58:40.573Z,1.60
2019-04-25T05:00:40.556Z,1.50
2019-04-25T05:02:40.566Z,1.60
2019-04-25T05:04:40.512Z,1.30
2019-04-25T05:06:40.503Z,1.20
2019-04-25T05:08:40.507Z,1.30
2019-04-25T05:10:40.457Z,1.40
2019-04-25T05:12:40.412Z,1.10
2019-04-25T05:14:40.430Z,1.30
2019-04-25T05:16:40.395Z,1.40
2019-04-25T05:18:40.347Z,1.30
2019-04-25T05:20:40.385Z,1.20
2019-04-25T05:22:40.308Z,1.20
2019-04-25T05:24:40.301Z,1.20
2019-04-25T05:26:40.300Z,1.40
2019-04-25T05:28:40.245Z,1.10
2019-04-25T05:30:40.233Z,1.20
2019-04-25T05:32:40.230Z,1.10
2019-04-25T05:34:40.259Z,1.20
2019-04-25T05:36:40.159Z,1.10
2019-04-25T05:38:40.137Z,1.00
2019-04-25T05:40:40.192Z,1.10
2019-04-25T05:42:40.105Z,0.90
2019-04-25T05:44:40.121Z,1.00
2019-04-25T05:46:40.088Z,1.00
2019-04-25T05:48:40.036Z,0.80
2019-04-25T05:50:40.040Z,1.00
2019-04-25T05:52:40.063Z,0.90
2019-04-25T05:54:39.962Z,1.00
2019-04-25T05:56:39.993Z,1.00
2019-04-25T05:58:39.966Z,0.90
2019-04-25T06:00:39.900Z,1.00
2019-04-25T06:02:39.880Z,1.30
2019-04-25T06:04:39.893Z,0.90
2019-04-25T06:06:39.891Z,0.90
2019-04-25T06:08:39.818Z,0.90
2019-04-25T06:10:39.828Z,0.80
2019-04-25T06:12:39.767Z,1.00
2019-04-25T06:14:39.756Z,1.00
2019-04-25T06:16:39.755Z,1.10
2019-04-25T06:18:39.708Z,0.80
2019-04-25T06:20:39.713Z,0.80
2019-04-25T06:22:39.661Z,0.90
2019-04-25T06:24:39.693Z,0.80
2019-04-25T06:26:40.085Z,1.00
2019-04-25T06:28:49.156Z,0.80
2019-04-25T06:30:40.613Z,0.90
2019-04-25T06:32:39.557Z,0.90
2019-04-25T06:34:39.533Z,1.20
2019-04-25T06:36:39.557Z,1.00
2019-04-25T06:38:39.512Z,0.90
2019-04-25T06:40:39.470Z,1.00
2019-04-25T06:42:39.527Z,0.90
2019-04-25T06:44:39.431Z,0.90
2019-04-25T06:46:39.408Z,0.90
2019-04-25T06:48:39.443Z,1.00
2019-04-25T06:50:39.374Z,1.30
2019-04-25T06:52:39.340Z,1.00
2019-04-25T06:54:39.372Z,1.00
2019-04-25T06:56:39.327Z,1.00
2019-04-25T06:58:39.295Z,0.90
2019-04-25T07:00:42.561Z,0.90
2019-04-25T07:02:40.254Z,0.90
2019-04-25T07:04:39.222Z,1.00
2019-04-25T07:06:39.218Z,0.90
2019-04-25T07:08:39.221Z,1.00
2019-04-25T07:10:39.162Z,0.90
2019-04-25T07:12:39.138Z,0.80
2019-04-25T07:14:39.122Z,1.00
2019-04-25T07:16:39.079Z,0.70
2019-04-25T07:18:39.084Z,0.90
2019-04-25T07:20:39.053Z,1.10
2019-04-25T07:22:39.021Z,0.90
2019-04-25T07:24:39.013Z,1.20
2019-04-25T07:26:39.797Z,0.80
2019-04-25T07:28:38.966Z,0.80
2019-04-25T07:30:50.220Z,0.70
2019-04-25T07:32:39.959Z,0.80
2019-04-25T07:34:38.900Z,0.80
2019-04-25T07:36:38.874Z,0.80
2019-04-25T07:38:38.892Z,0.80
2019-04-25T07:40:38.870Z,0.80
2019-04-25T07:42:38.801Z,0.90
2019-04-25T07:44:49.724Z,1.00
2019-04-25T07:46:40.190Z,0.90
2019-04-25T07:48:38.751Z,1.00
2019-04-25T07:50:38.747Z,1.00
2019-04-25T07:52:38.725Z,1.20
2019-04-25T07:54:38.675Z,0.80
2019-04-25T07:56:38.666Z,0.90
2019-04-25T07:58:49.142Z,0.90
2019-04-25T08:00:39.613Z,1.00
2019-04-25T08:02:39.527Z,0.80
2019-04-25T08:04:38.587Z,1.10
2019-04-25T08:06:38.563Z,0.80
2019-04-25T08:08:38.559Z,0.80
2019-04-25T08:10:38.514Z,0.90
2019-04-25T08:12:39.361Z,0.80
2019-04-25T08:14:38.499Z,0.70
2019-04-25T08:16:39.273Z,0.80
2019-04-25T08:18:38.964Z,1.00
2019-04-25T08:20:38.405Z,0.90
2019-04-25T08:22:52.005Z,0.70
2019-04-25T08:24:39.405Z,1.00
2019-04-25T08:26:39.344Z,1.00
2019-04-25T08:28:49.930Z,0.80
2019-04-25T08:30:39.325Z,0.90
2019-04-25T08:32:38.274Z,0.80
2019-04-25T08:34:38.622Z,0.70
2019-04-25T08:36:38.892Z,0.80
2019-04-25T08:38:38.216Z,0.70
2019-04-25T08:40:39.012Z,1.10
2019-04-25T08:42:38.192Z,0.90
2019-04-25T08:44:39.166Z,0.90
2019-04-25T08:46:39.340Z,0.90
2019-04-25T08:48:38.123Z,0.80
2019-04-25T08:50:40.144Z,0.80
2019-04-25T08:52:38.077Z,0.80
2019-04-25T08:54:41.085Z,1.00
2019-04-25T08:56:39.824Z,0.80
2019-04-25T08:58:37.986Z,0.70
2019-04-25T09:00:38.314Z,0.80
2019-04-25T09:02:38.875Z,0.70
2019-04-25T09:04:38.074Z,0.70
2019-04-25T09:06:38.624Z,0.70
2019-04-25T09:08:38.454Z,0.60
2019-04-25T09:10:38.960Z,0.70
2019-04-25T09:12:37.877Z,0.50
2019-04-25T09:14:38.194Z,0.70
2019-04-25T09:16:37.909Z,0.80
2019-04-25T09:18:38.183Z,0.60
2019-04-25T09:20:39.647Z,0.60
2019-04-25T09:22:38.606Z,0.70
2019-04-25T09:24:38.948Z,0.70
2019-04-25T09:26:38.358Z,0.70
2019-04-25T09:28:39.476Z,0.70
2019-04-25T09:30:38.374Z,0.70
2019-04-25T09:32:37.648Z,0.70
2019-04-25T09:34:38.122Z,1.00
2019-04-25T09:36:37.733Z,0.80
2019-04-25T09:38:37.584Z,0.90
2019-04-25T09:40:37.550Z,0.70
2019-04-25T09:42:37.549Z,0.70
2019-04-25T09:44:38.459Z,0.80
2019-04-25T09:46:37.475Z,0.60
2019-04-25T09:48:37.570Z,0.70
2019-04-25T09:50:38.651Z,0.60
2019-04-25T09:52:37.732Z,0.70
2019-04-25T09:54:38.038Z,0.60
2019-04-25T09:56:38.246Z,0.80
2019-04-25T09:58:37.969Z,0.90
2019-04-25T10:00:38.207Z,0.60
2019-04-25T10:02:38.174Z,0.80
2019-04-25T10:04:37.931Z,0.70
2019-04-25T10:06:37.369Z,0.70
2019-04-25T10:08:37.253Z,0.70
2019-04-25T10:10:38.007Z,0.70
2019-04-25T10:12:45.326Z,0.70
2019-04-25T10:14:37.639Z,0.80
2019-04-25T10:16:37.943Z,0.70
2019-04-25T10:18:37.898Z,0.60
2019-04-25T10:20:37.654Z,0.70
2019-04-25T10:22:38.076Z,0.60
2019-04-25T10:24:37.434Z,0.60
2019-04-25T10:26:37.641Z,0.50
2019-04-25T10:28:37.028Z,0.80
2019-04-25T10:30:37.001Z,0.50
2019-04-25T10:32:37.083Z,0.90
2019-04-25T10:34:36.986Z,0.60
2019-04-25T10:36:39.765Z,0.60
2019-04-25T10:38:36.996Z,0.60
2019-04-25T10:40:37.016Z,0.80
2019-04-25T10:42:36.922Z,0.70
2019-04-25T10:44:36.866Z,0.70
2019-04-25T10:46:36.837Z,0.50
2019-04-25T10:48:36.909Z,0.40
2019-04-25T10:50:36.790Z,0.60
2019-04-25T10:52:36.788Z,0.50
2019-04-25T10:54:36.750Z,0.50
2019-04-25T10:56:36.836Z,0.60
2019-04-25T10:58:36.752Z,0.60
2019-04-25T11:00:36.719Z,0.50
2019-04-25T11:02:36.652Z,0.50
2019-04-25T11:04:36.744Z,0.50
2019-04-25T11:06:36.656Z,0.70
2019-04-25T11:08:36.621Z,0.70
2019-04-25T11:10:36.588Z,0.60
2019-04-25T11:12:36.576Z,0.40
2019-04-25T11:14:36.518Z,0.60
2019-04-25T11:16:36.507Z,0.50
2019-04-25T11:18:36.496Z,0.60
2019-04-25T11:20:36.458Z,0.50
2019-04-25T11:22:36.453Z,0.40
2019-04-25T11:24:36.414Z,0.50
2019-04-25T11:26:36.473Z,0.70
2019-04-25T11:28:36.414Z,0.50
2019-04-25T11:30:36.380Z,0.50
2019-04-25T11:32:36.346Z,0.40
2019-04-25T11:34:36.379Z,0.50
2019-04-25T11:36:36.343Z,0.70
2019-04-25T11:38:36.291Z,0.50
2019-04-25T11:40:36.236Z,0.60
2019-04-25T11:42:36.362Z,0.60
2019-04-25T11:44:36.226Z,0.50
2019-04-25T11:46:36.201Z,0.40
2019-04-25T11:48:36.168Z,0.40
2019-04-25T11:50:37.110Z,0.50
2019-04-25T11:52:36.155Z,0.50
2019-04-25T11:54:36.111Z,0.30
2019-04-25T11:56:36.066Z,0.50
2019-04-25T11:58:36.169Z,0.50
2019-04-25T12:00:36.074Z,0.50
2019-04-25T12:02:36.053Z,0.40
2019-04-25T12:04:35.984Z,0.60
2019-04-25T12:06:36.074Z,0.30
2019-04-25T12:08:35.980Z,0.60
2019-04-25T12:10:35.950Z,0.40
2019-04-25T12:12:37.285Z,0.80
2019-04-25T12:14:35.967Z,0.30
2019-04-25T12:16:35.873Z,0.40
2019-04-25T12:18:35.880Z,0.40
2019-04-25T12:20:35.808Z,0.30
2019-04-25T12:22:35.827Z,0.40
2019-04-25T12:24:44.536Z,0.40
2019-04-25T12:26:35.744Z,0.40
2019-04-25T12:28:42.766Z,0.50
2019-04-25T12:30:40.101Z,0.50
2019-04-25T12:32:35.683Z,0.50
2019-04-25T12:34:35.661Z,0.40
2019-04-25T12:36:35.648Z,0.50
2019-04-25T12:38:35.654Z,0.40
2019-04-25T12:40:35.612Z,0.30
2019-04-25T12:42:35.720Z,0.70
2019-04-25T12:44:35.586Z,0.40
2019-04-25T12:46:35.579Z,0.50
2019-04-25T12:48:35.523Z,0.70
2019-04-25T12:50:35.615Z,0.40
2019-04-25T12:52:35.497Z,0.40
2019-04-25T12:54:35.519Z,0.50
2019-04-25T12:56:35.430Z,0.50
2019-04-25T12:58:35.517Z,0.50
2019-04-25T13:00:47.310Z,0.30
2019-04-25T13:02:36.681Z,0.40
2019-04-25T13:04:35.353Z,0.40
2019-04-25T13:06:35.353Z,0.40
2019-04-25T13:08:35.310Z,0.40
2019-04-25T13:10:35.279Z,0.40
2019-04-25T13:12:35.310Z,0.40
2019-04-25T13:14:35.233Z,0.40
2019-04-25T13:16:35.213Z,0.40
2019-04-25T13:18:35.254Z,0.50
2019-04-25T13:20:35.178Z,0.50
2019-04-25T13:22:35.184Z,0.60
2019-04-25T13:24:35.183Z,0.40
2019-04-25T13:26:35.107Z,0.60
2019-04-25T13:28:35.100Z,0.40
2019-04-25T13:30:35.128Z,0.40
2019-04-25T13:32:35.044Z,0.60
2019-04-25T13:34:36.574Z,0.40
2019-04-25T13:36:35.040Z,0.50
2019-04-25T13:38:34.980Z,0.50
2019-04-25T13:40:34.977Z,0.40
2019-04-25T13:42:34.987Z,0.40
2019-04-25T13:44:34.919Z,0.40
2019-04-25T13:46:34.909Z,0.60
2019-04-25T13:48:35.662Z,0.30
2019-04-25T13:50:34.850Z,0.50
2019-04-25T13:52:36.184Z,0.40
2019-04-25T13:54:35.095Z,0.40
2019-04-25T13:56:39.097Z,0.60
2019-04-25T13:58:35.823Z,0.40
2019-04-25T14:00:34.974Z,0.30
2019-04-25T14:02:34.725Z,0.40
2019-04-25T14:04:35.757Z,0.30
2019-04-25T14:06:34.678Z,0.30
2019-04-25T14:08:34.674Z,0.40
2019-04-25T14:10:34.736Z,0.30
2019-04-25T14:12:34.617Z,0.40
2019-04-25T14:14:36.019Z,0.40
2019-04-25T14:16:34.891Z,0.40
2019-04-25T14:18:34.553Z,0.30
2019-04-25T14:20:34.542Z,0.40
2019-04-25T14:22:34.513Z,0.40
2019-04-25T14:24:35.797Z,0.60
2019-04-25T14:26:34.525Z,0.30
2019-04-25T14:28:35.434Z,0.50
2019-04-25T14:30:35.926Z,0.30
2019-04-25T14:32:35.199Z,0.40
2019-04-25T14:34:34.413Z,0.40
2019-04-25T14:36:34.589Z,0.30
2019-04-25T14:38:35.479Z,0.50
2019-04-25T14:40:34.442Z,0.30
2019-04-25T14:42:34.354Z,0.60
2019-04-25T14:44:34.312Z,0.50
2019-04-25T14:46:34.259Z,0.40
2019-04-25T14:48:34.271Z,0.40
2019-04-25T14:50:34.217Z,0.50
2019-04-25T14:52:34.203Z,0.50
2019-04-25T14:54:36.032Z,0.50
2019-04-25T14:56:34.145Z,0.50
2019-04-25T14:58:34.136Z,0.50
2019-04-25T15:00:34.232Z,0.50
2019-04-25T15:02:34.271Z,0.60
2019-04-25T15:04:34.076Z,0.50
2019-04-25T15:06:34.079Z,0.40
2019-04-25T15:08:34.039Z,0.40
2019-04-25T15:10:34.115Z,0.60
2019-04-25T15:12:34.048Z,0.70
2019-04-25T15:14:33.969Z,0.50
2019-04-25T15:16:34.058Z,0.60
2019-04-25T15:18:45.859Z,0.70
2019-04-25T15:20:34.936Z,0.80
2019-04-25T15:22:34.671Z,0.60
2019-04-25T15:24:34.845Z,1.00
2019-04-25T15:26:33.842Z,0.50
2019-04-25T15:28:33.806Z,0.70
2019-04-25T15:30:33.808Z,0.50
2019-04-25T15:32:34.726Z,0.60
2019-04-25T15:34:33.770Z,0.70
2019-04-25T15:36:33.715Z,0.50
2019-04-25T15:38:33.822Z,0.50
2019-04-25T15:40:34.437Z,0.70
2019-04-25T15:42:33.989Z,0.50
2019-04-25T15:44:33.643Z,0.50
2019-04-25T15:46:34.445Z,0.80
2019-04-25T15:48:33.595Z,0.70
2019-04-25T15:50:34.085Z,0.80
2019-04-25T15:52:33.828Z,0.60
2019-04-25T15:54:33.894Z,0.70
2019-04-25T15:56:33.552Z,0.60
2019-04-25T15:58:33.475Z,0.70
2019-04-25T16:00:33.492Z,0.60
2019-04-25T16:02:33.444Z,0.70
2019-04-25T16:04:33.409Z,0.60
2019-04-25T16:06:34.060Z,0.70
2019-04-25T16:08:33.386Z,0.80
2019-04-25T16:10:34.015Z,0.90
2019-04-25T16:12:33.329Z,1.10
2019-04-25T16:14:33.434Z,0.80
2019-04-25T16:16:33.314Z,0.70
2019-04-25T16:18:33.280Z,0.70
2019-04-25T16:20:33.582Z,1.00
2019-04-25T16:22:34.359Z,1.10
2019-04-25T16:24:34.275Z,0.80
2019-04-25T16:26:33.616Z,0.70
2019-04-25T16:28:33.894Z,0.80
2019-04-25T16:30:33.146Z,0.80
2019-04-25T16:32:33.257Z,1.00
2019-04-25T16:34:33.146Z,0.90
2019-04-25T16:36:33.127Z,0.90
2019-04-25T16:38:33.354Z,0.80
2019-04-25T16:40:33.877Z,0.70
2019-04-25T16:42:33.777Z,0.70
2019-04-25T16:44:33.753Z,0.90
2019-04-25T16:46:32.978Z,0.90
2019-04-25T16:48:33.721Z,1.10
2019-04-25T16:50:32.925Z,0.90
2019-04-25T16:52:33.749Z,0.60
2019-04-25T16:54:33.648Z,0.50
2019-04-25T16:56:32.856Z,0.40
2019-04-25T16:58:32.981Z,0.50
2019-04-25T17:00:32.810Z,0.50
2019-04-25T17:02:38.287Z,0.50
2019-04-25T17:04:33.809Z,0.70
2019-04-25T17:06:33.793Z,0.50
2019-04-25T17:08:32.735Z,0.60
2019-04-25T17:10:32.834Z,0.50
2019-04-25T17:12:32.680Z,0.70
2019-04-25T17:14:32.813Z,0.60
2019-04-25T17:16:32.690Z,0.40
2019-04-25T17:18:44.509Z,0.70
2019-04-25T17:20:54.665Z,0.70
2019-04-25T17:22:32.586Z,0.50
2019-04-25T17:24:32.551Z,1.00
2019-04-25T17:26:32.790Z,0.60
2019-04-25T17:28:32.704Z,0.50
2019-04-25T17:30:32.642Z,0.60
2019-04-25T17:32:36.667Z,0.70
2019-04-25T17:34:34.062Z,0.40
2019-04-25T17:36:34.614Z,0.60
2019-04-25T17:38:36.046Z,0.60
2019-04-25T17:40:35.944Z,0.50
2019-04-25T17:42:32.513Z,0.50
2019-04-25T17:44:32.789Z,0.60
2019-04-25T17:46:32.739Z,0.50
2019-04-25T17:48:32.912Z,0.50
2019-04-25T17:50:32.922Z,0.60
2019-04-25T17:52:32.726Z,0.50
2019-04-25T17:54:32.922Z,0.60
2019-04-25T17:56:33.188Z,0.50
2019-04-25T17:58:32.282Z,0.60
2019-04-25T18:00:33.751Z,0.70
2019-04-25T18:02:33.544Z,0.50
2019-04-25T18:04:32.134Z,0.50
2019-04-25T18:06:32.106Z,0.50
2019-04-25T18:08:32.094Z,0.60
2019-04-25T18:10:32.212Z,0.60
2019-04-25T18:12:32.059Z,0.50
2019-04-25T18:14:32.052Z,0.70
2019-04-25T18:16:31.991Z,0.50
2019-04-25T18:18:32.029Z,0.40
2019-04-25T18:20:31.976Z,0.40
2019-04-25T18:22:31.953Z,0.60
2019-04-25T18:24:31.921Z,0.50
2019-04-25T18:26:31.957Z,0.40
2019-04-25T18:28:31.871Z,0.60
2019-04-25T18:30:31.912Z,0.50
2019-04-25T18:32:31.828Z,0.50
2019-04-25T18:34:31.874Z,0.40
2019-04-25T18:36:31.812Z,0.50
2019-04-25T18:38:31.772Z,0.60
2019-04-25T18:40:31.736Z,0.50
2019-04-25T18:42:31.793Z,0.60
2019-04-25T18:44:31.715Z,0.60
2019-04-25T18:46:31.692Z,0.80
2019-04-25T18:48:31.664Z,0.60
2019-04-25T18:50:31.713Z,0.70
2019-04-25T18:52:31.652Z,0.80
2019-04-25T18:54:31.606Z,0.70
2019-04-25T18:56:31.563Z,0.50
2019-04-25T18:58:31.624Z,0.60
2019-04-25T19:00:31.556Z,0.50
2019-04-25T19:02:31.526Z,0.60
2019-04-25T19:04:31.510Z,0.80
2019-04-25T19:06:31.543Z,1.30
2019-04-25T19:08:31.448Z,1.30
2019-04-25T19:10:31.435Z,0.70
2019-04-25T19:12:31.392Z,0.60
2019-04-25T19:14:31.460Z,0.70
2019-04-25T19:16:31.420Z,0.70
2019-04-25T19:18:31.352Z,0.80
2019-04-25T19:20:31.314Z,0.70
2019-04-25T19:22:31.287Z,0.90
2019-04-25T19:24:31.265Z,0.60
2019-04-25T19:26:31.265Z,0.80
2019-04-25T19:28:31.221Z,0.80
2019-04-25T19:30:31.204Z,0.90
2019-04-25T19:32:31.190Z,0.90
2019-04-25T19:34:31.160Z,0.90
2019-04-25T19:36:31.135Z,0.80
2019-04-25T19:38:31.128Z,1.10
2019-04-25T19:40:31.137Z,1.00
2019-04-25T19:42:31.095Z,1.00
2019-04-25T19:44:31.047Z,1.10
2019-04-25T19:46:31.054Z,1.30
2019-04-25T19:48:31.021Z,1.10
2019-04-25T19:50:30.995Z,1.20
2019-04-25T19:52:30.968Z,1.00
2019-04-25T19:54:30.953Z,1.20
2019-04-25T19:56:30.962Z,1.20
2019-04-25T19:58:30.899Z,1.20
2019-04-25T20:00:30.928Z,1.30
2019-04-25T20:02:30.865Z,1.30
2019-04-25T20:04:30.841Z,1.30
2019-04-25T20:06:30.826Z,1.10
2019-04-25T20:08:30.896Z,1.30
2019-04-25T20:10:30.810Z,1.40
2019-04-25T20:12:30.788Z,1.20
2019-04-25T20:14:30.729Z,1.10
2019-04-25T20:16:30.843Z,1.10
2019-04-25T20:18:30.734Z,1.00
2019-04-25T20:20:30.707Z,1.20
2019-04-25T20:22:30.659Z,1.40
2019-04-25T20:24:30.775Z,1.30
2019-04-25T20:26:30.627Z,1.30
2019-04-25T20:28:30.611Z,1.40
2019-04-25T20:30:30.776Z,1.20
2019-04-25T20:32:33.128Z,1.10
2019-04-25T20:34:32.165Z,0.70
2019-04-25T20:36:30.884Z,1.00
2019-04-25T20:38:30.526Z,1.10
2019-04-25T20:40:30.672Z,1.00
2019-04-25T20:42:30.450Z,1.10
2019-04-25T20:44:30.602Z,1.10
2019-04-25T20:46:30.390Z,0.90
2019-04-25T20:48:30.530Z,1.20
2019-04-25T20:50:30.356Z,1.10
2019-04-25T20:52:30.359Z,1.40
2019-04-25T20:54:30.356Z,1.80
2019-04-25T20:56:30.462Z,1.60
2019-04-25T20:58:30.284Z,1.60
2019-04-25T21:00:30.253Z,1.40
2019-04-25T21:02:30.208Z,1.40
2019-04-25T21:04:30.222Z,1.30
2019-04-25T21:06:44.711Z,1.30
2019-04-25T21:09:02.279Z,1.40
2019-04-25T21:10:32.209Z,1.40
2019-04-25T21:12:30.112Z,1.50
2019-04-25T21:14:30.093Z,1.60
2019-04-25T21:16:30.227Z,1.70
2019-04-25T21:18:30.044Z,1.80
2019-04-25T21:20:30.032Z,2.00
2019-04-25T21:22:37.684Z,1.90
2019-04-25T21:24:29.980Z,1.90
2019-04-25T21:26:30.467Z,1.80
2019-04-25T21:28:29.931Z,1.90
2019-04-25T21:30:29.936Z,2.20
2019-04-25T21:32:29.925Z,1.80
2019-04-25T21:34:30.830Z,2.30
2019-04-25T21:36:29.858Z,2.20
2019-04-25T21:38:29.919Z,1.90
2019-04-25T21:40:30.283Z,2.20
2019-04-25T21:42:29.980Z,2.10
2019-04-25T21:44:30.009Z,2.30
2019-04-25T21:46:29.752Z,2.20
2019-04-25T21:48:29.720Z,1.90
2019-04-25T21:50:29.724Z,2.30
2019-04-25T21:52:29.733Z,2.40
2019-04-25T21:54:29.660Z,2.20
2019-04-25T21:56:29.672Z,2.40
2019-04-25T21:58:29.619Z,1.90
2019-04-25T22:00:29.600Z,2.10
2019-04-25T22:02:29.581Z,2.00
2019-04-25T22:04:38.558Z,2.00
2019-04-25T22:06:30.540Z,2.00
2019-04-25T22:08:29.505Z,1.80
2019-04-25T22:10:29.601Z,1.90
2019-04-25T22:12:29.667Z,2.00
2019-04-25T22:14:29.631Z,1.80
2019-04-25T22:16:31.171Z,2.00
2019-04-25T22:18:29.438Z,2.10
2019-04-25T22:20:29.372Z,1.90
2019-04-25T22:22:29.412Z,2.00
2019-04-25T22:24:29.397Z,1.90
2019-04-25T22:26:29.479Z,1.90
2019-04-25T22:28:29.289Z,2.20
2019-04-25T22:30:29.431Z,2.20
2019-04-25T22:32:29.454Z,2.10
2019-04-25T22:34:29.224Z,1.90
2019-04-25T22:36:29.244Z,2.20
2019-04-25T22:38:29.290Z,2.00
2019-04-25T22:40:29.180Z,2.10
2019-04-25T22:42:29.141Z,2.00
2019-04-25T22:44:29.200Z,2.10
2019-04-25T22:46:29.092Z,2.00
2019-04-25T22:48:29.146Z,2.10
2019-04-25T22:50:29.065Z,2.20
2019-04-25T22:52:29.027Z,2.30
2019-04-25T22:54:36.133Z,2.10
2019-04-25T22:56:29.091Z,2.40
2019-04-25T22:58:28.998Z,2.00
2019-04-25T23:00:28.981Z,2.00
2019-04-25T23:02:29.045Z,2.20
2019-04-25T23:04:28.904Z,2.30
2019-04-25T23:06:28.885Z,2.30
2019-04-25T23:08:28.865Z,1.90
2019-04-25T23:10:28.852Z,1.90
2019-04-25T23:12:28.822Z,2.20
2019-04-25T23:14:28.790Z,2.00
2019-04-25T23:16:28.771Z,2.00
2019-04-25T23:18:28.795Z,2.00
2019-04-25T23:20:28.728Z,2.40
2019-04-25T23:22:28.811Z,2.20
2019-04-25T23:24:28.700Z,2.50
2019-04-25T23:26:28.697Z,2.40
2019-04-25T23:28:28.653Z,2.10
